Time;durP1;ratioP1;P1;durP2;ratioP2;P2;SDS_P1;SDS_P2;PMS_P1;PMS_P2;Temp;Humidity;BMP_temperature;BMP_pressure;BME280_temperature;BME280_humidity;BME280_pressure;Samples;Min_cycle;Max_cycle;Signal;HPM_P1;HPM_P2
2021/03/20 00:01:34;;;;;;;22.83;16.00;;;0.60;99.90;;;;;;4145304;28;20049;-73
2021/03/20 00:03:35;;;;;;;29.13;15.80;;;0.60;99.90;;;;;;4145253;28;20050;-73
2021/03/20 00:05:36;;;;;;;24.52;16.73;;;0.50;99.90;;;;;;4143732;28;20355;-72
2021/03/20 00:07:38;;;;;;;29.80;15.43;;;0.50;99.90;;;;;;4140050;28;20038;-73
2021/03/20 00:09:38;;;;;;;22.58;17.02;;;0.40;99.90;;;;;;4145248;28;20404;-73
2021/03/20 00:11:42;;;;;;;24.10;15.23;;;0.40;99.90;;;;;;4143425;28;20034;-72
2021/03/20 00:13:43;;;;;;;25.13;15.27;;;0.40;99.90;;;;;;4145001;28;20046;-72
2021/03/20 00:15:44;;;;;;;30.77;16.60;;;0.30;99.90;;;;;;4145606;28;20040;-72
2021/03/20 00:17:45;;;;;;;26.23;17.48;;;0.30;99.90;;;;;;4144479;28;20041;-73
2021/03/20 00:19:45;;;;;;;22.55;16.20;;;0.30;99.90;;;;;;4144482;28;20046;-73
2021/03/20 00:21:46;;;;;;;21.42;15.43;;;0.30;99.90;;;;;;4143347;28;20078;-72
2021/03/20 00:23:48;;;;;;;22.48;15.55;;;0.30;99.90;;;;;;4144208;28;20128;-73
2021/03/20 00:25:50;;;;;;;27.17;15.65;;;0.30;99.90;;;;;;4144818;28;20421;-73
2021/03/20 00:27:51;;;;;;;24.13;15.15;;;0.30;99.90;;;;;;4146398;28;20048;-72
2021/03/20 00:29:52;;;;;;;32.90;16.00;;;0.30;99.90;;;;;;4144551;28;20064;-73
2021/03/20 00:31:53;;;;;;;22.73;14.70;;;0.20;99.90;;;;;;4140881;28;20022;-72
2021/03/20 00:33:53;;;;;;;26.23;16.75;;;0.20;99.90;;;;;;4144318;28;20034;-72
2021/03/20 00:35:55;;;;;;;24.95;15.55;;;0.20;99.90;;;;;;4144847;28;20038;-72
2021/03/20 00:37:56;;;;;;;25.55;17.20;;;0.20;99.90;;;;;;4143301;28;20136;-73
2021/03/20 00:39:56;;;;;;;23.08;15.88;;;0.10;99.90;;;;;;4145026;28;20561;-72
2021/03/20 00:41:57;;;;;;;27.40;17.20;;;0.10;99.90;;;;;;4144218;28;20040;-73
2021/03/20 00:43:58;;;;;;;28.08;16.13;;;0.10;99.90;;;;;;4136425;28;20030;-72
2021/03/20 00:45:59;;;;;;;27.17;16.58;;;0.10;99.90;;;;;;4144550;28;20038;-72
2021/03/20 00:48:24;;;;;;;29.60;16.00;;;0.20;99.90;;;;;;4136462;28;20053;-73
2021/03/20 00:50:25;;;;;;;23.90;14.82;;;0.10;99.90;;;;;;4141748;28;20029;-72
2021/03/20 00:52:26;;;;;;;23.35;16.90;;;0.10;99.90;;;;;;4144043;28;20033;-72
2021/03/20 00:54:26;;;;;;;30.95;17.13;;;0.00;99.90;;;;;;4140511;28;20026;-71
2021/03/20 00:56:27;;;;;;;23.58;16.38;;;0.10;99.90;;;;;;4145729;28;20030;-72
2021/03/20 00:58:35;;;;;;;24.02;14.93;;;0.00;99.90;;;;;;4144804;28;20030;-72
2021/03/20 01:00:35;;;;;;;26.73;15.45;;;0.10;99.90;;;;;;4140077;28;20112;-72
2021/03/20 01:02:36;;;;;;;24.77;16.77;;;0.00;99.90;;;;;;4144674;28;20030;-72
2021/03/20 01:04:36;;;;;;;23.60;15.18;;;0.00;99.90;;;;;;4144033;28;20030;-73
2021/03/20 01:06:37;;;;;;;24.13;15.45;;;-0.10;99.90;;;;;;4141628;28;20033;-72
2021/03/20 01:08:38;;;;;;;27.33;16.20;;;-0.10;99.90;;;;;;4145113;28;20385;-72
2021/03/20 01:10:39;;;;;;;26.10;15.50;;;-0.20;99.90;;;;;;4145848;28;20026;-73
2021/03/20 01:12:40;;;;;;;27.23;15.13;;;-0.20;99.90;;;;;;4145405;28;20084;-73
2021/03/20 01:14:40;;;;;;;25.23;17.35;;;-0.30;99.90;;;;;;4145226;28;20030;-72
2021/03/20 01:16:41;;;;;;;24.60;15.77;;;-0.30;99.90;;;;;;4145376;28;20107;-73
2021/03/20 01:18:42;;;;;;;26.27;14.32;;;-0.30;99.90;;;;;;4145413;28;20041;-72
2021/03/20 01:20:44;;;;;;;25.38;15.10;;;-0.40;99.90;;;;;;4142570;28;20037;-73
2021/03/20 01:22:45;;;;;;;27.20;15.38;;;-0.40;99.90;;;;;;4142104;28;20069;-72
2021/03/20 01:24:45;;;;;;;26.10;16.05;;;-0.40;99.90;;;;;;4144906;28;20045;-72
2021/03/20 01:26:46;;;;;;;24.83;15.15;;;-0.40;99.90;;;;;;4143028;28;20037;-73
2021/03/20 01:28:47;;;;;;;26.70;15.32;;;-0.40;99.90;;;;;;4143730;28;20444;-73
2021/03/20 01:30:47;;;;;;;25.02;15.75;;;-0.50;99.90;;;;;;4144122;28;20626;-73
2021/03/20 01:32:48;;;;;;;24.85;16.27;;;-0.50;99.90;;;;;;4144800;28;20428;-72
2021/03/20 01:34:48;;;;;;;27.23;15.77;;;-0.60;99.90;;;;;;4144032;28;20217;-73
2021/03/20 01:36:49;;;;;;;25.33;16.17;;;-0.60;99.90;;;;;;4136171;28;20077;-73
2021/03/20 01:38:50;;;;;;;29.52;16.23;;;-0.60;99.90;;;;;;4143546;28;20033;-72
2021/03/20 01:40:55;;;;;;;28.08;16.17;;;-0.60;99.90;;;;;;4143736;28;20189;-73
2021/03/20 01:42:56;;;;;;;25.85;15.30;;;-0.60;99.90;;;;;;4140266;28;20065;-72
2021/03/20 01:45:25;;;;;;;29.85;15.35;;;-0.60;99.90;;;;;;4144792;28;20049;-72
2021/03/20 01:47:25;;;;;;;24.00;15.43;;;-0.70;99.90;;;;;;4144492;28;20543;-73
2021/03/20 01:49:41;;;;;;;24.35;16.02;;;-0.70;99.90;;;;;;4144983;28;20034;-73
2021/03/20 01:51:43;;;;;;;24.13;15.85;;;-0.70;99.90;;;;;;4145243;28;20030;-73
2021/03/20 01:53:59;;;;;;;22.60;14.90;;;-0.80;99.90;;;;;;4144323;28;20045;-73
2021/03/20 01:56:01;;;;;;;25.73;14.55;;;-0.80;99.90;;;;;;4135350;28;20140;-73
2021/03/20 01:58:03;;;;;;;22.17;15.52;;;-0.70;99.90;;;;;;4143571;28;20362;-73
2021/03/20 02:00:07;;;;;;;28.15;16.73;;;-0.80;99.90;;;;;;4139756;28;20034;-72
2021/03/20 02:02:08;;;;;;;26.42;16.35;;;-0.80;99.90;;;;;;4145047;28;20547;-72
2021/03/20 02:04:09;;;;;;;31.15;16.23;;;-0.90;99.90;;;;;;4144405;28;20113;-72
2021/03/20 02:06:11;;;;;;;28.48;17.08;;;-0.90;99.90;;;;;;4140960;28;20034;-72
2021/03/20 02:08:15;;;;;;;28.27;16.33;;;-0.80;99.90;;;;;;4142572;28;20041;-73
2021/03/20 02:10:16;;;;;;;21.02;15.63;;;-0.90;99.90;;;;;;4143716;28;20026;-73
2021/03/20 02:12:21;;;;;;;26.25;15.38;;;-1.00;99.90;;;;;;4133181;28;20035;-72
2021/03/20 02:14:33;;;;;;;26.63;16.73;;;-1.00;99.90;;;;;;4138047;28;20394;-73
2021/03/20 02:16:45;;;;;;;23.55;15.65;;;-1.00;99.90;;;;;;4143944;28;20373;-73
2021/03/20 02:18:56;;;;;;;26.63;16.58;;;-1.10;99.90;;;;;;4138621;28;20101;-72
2021/03/20 02:21:32;;;;;;;27.48;15.75;;;-1.10;99.90;;;;;;4140950;28;20030;-73
2021/03/20 02:24:10;;;;;;;26.85;14.68;;;-1.10;99.90;;;;;;4144263;28;20038;-72
2021/03/20 02:26:56;;;;;;;24.35;14.50;;;-1.20;99.90;;;;;;4144266;28;20177;-72
2021/03/20 02:29:26;;;;;;;24.42;14.30;;;-1.30;99.90;;;;;;4138062;28;20041;-72
2021/03/20 02:31:43;;;;;;;30.05;14.52;;;-1.30;99.90;;;;;;4138509;28;20053;-72
2021/03/20 02:34:19;;;;;;;28.02;15.27;;;-1.40;99.90;;;;;;4143964;28;20474;-72
2021/03/20 02:36:34;;;;;;;25.95;15.15;;;-1.50;99.90;;;;;;4141360;28;20037;-73
2021/03/20 02:39:01;;;;;;;26.60;14.70;;;-1.50;99.90;;;;;;4155938;28;20095;-72
2021/03/20 02:41:23;;;;;;;25.45;14.68;;;-1.70;99.90;;;;;;4144511;28;20078;-73
2021/03/20 02:43:28;;;;;;;29.10;15.07;;;-1.70;99.90;;;;;;4144391;28;20477;-73
2021/03/20 02:45:42;;;;;;;22.33;14.00;;;-1.80;99.90;;;;;;4143033;28;20042;-72
2021/03/20 02:48:09;;;;;;;27.15;15.05;;;-1.80;99.90;;;;;;4147335;28;20497;-72
2021/03/20 02:50:18;;;;;;;23.80;14.75;;;-1.90;99.90;;;;;;4145963;28;20121;-73
2021/03/20 02:52:32;;;;;;;25.67;14.20;;;-2.00;99.90;;;;;;4146094;28;20034;-73
2021/03/20 02:54:58;;;;;;;31.05;15.15;;;-2.10;99.90;;;;;;4141299;28;20030;-73
2021/03/20 02:57:02;;;;;;;24.85;14.48;;;;;;;;;;4145243;28;20473;-72
2021/03/20 02:59:11;;;;;;;26.55;13.00;;;-2.20;99.90;;;;;;4143794;28;20064;-72
2021/03/20 03:01:16;;;;;;;23.35;12.60;;;-2.20;99.90;;;;;;4144039;28;20049;-72
2021/03/20 03:03:18;;;;;;;28.58;14.13;;;;;;;;;;4146407;28;20068;-73
2021/03/20 03:05:27;;;;;;;26.05;14.25;;;-3.60;99.90;;;;;;4139815;28;20046;-72
2021/03/20 03:07:35;;;;;;;28.27;16.13;;;-2.30;99.90;;;;;;4137829;28;20109;-72
2021/03/20 03:09:45;;;;;;;26.20;14.43;;;-2.20;99.90;;;;;;4141911;28;20041;-73
2021/03/20 03:11:55;;;;;;;24.77;15.00;;;-2.20;99.90;;;;;;4147393;28;20044;-72
2021/03/20 03:14:09;;;;;;;27.08;14.07;;;-2.30;99.90;;;;;;4142927;28;20036;-72
2021/03/20 03:16:18;;;;;;;24.92;14.25;;;-2.30;99.90;;;;;;4145657;28;20037;-72
2021/03/20 03:18:45;;;;;;;27.90;14.43;;;-2.30;99.90;;;;;;4139543;28;20117;-74
2021/03/20 03:20:50;;;;;;;27.35;15.07;;;-2.30;99.90;;;;;;4145646;28;20106;-73
2021/03/20 03:22:58;;;;;;;28.95;15.65;;;-2.20;99.90;;;;;;4145657;28;20570;-73
2021/03/20 03:25:03;;;;;;;26.00;14.18;;;-2.20;99.90;;;;;;4145954;28;20535;-73
2021/03/20 03:27:08;;;;;;;25.45;14.45;;;-2.30;99.90;;;;;;4135251;28;20173;-73
2021/03/20 03:29:17;;;;;;;24.13;15.15;;;-2.30;99.90;;;;;;4147044;28;20032;-73
2021/03/20 03:31:35;;;;;;;29.55;16.50;;;-2.40;99.90;;;;;;4139866;28;20030;-74
2021/03/20 03:33:52;;;;;;;37.53;16.35;;;-2.40;99.90;;;;;;4139565;28;20661;-74
2021/03/20 03:36:06;;;;;;;30.15;15.70;;;-2.30;99.90;;;;;;4144777;28;20088;-74
2021/03/20 03:38:22;;;;;;;35.40;17.58;;;-2.20;99.90;;;;;;4145244;28;20081;-73
2021/03/20 03:40:41;;;;;;;34.72;17.38;;;-2.10;99.90;;;;;;4140306;28;20030;-71
2021/03/20 03:42:41;;;;;;;32.42;16.70;;;-2.00;99.90;;;;;;4145583;28;20062;-74
2021/03/20 03:44:45;;;;;;;29.58;16.42;;;-2.10;99.90;;;;;;4142319;28;20505;-72
2021/03/20 03:46:47;;;;;;;27.83;15.27;;;-2.20;99.90;;;;;;4143657;28;20026;-74
2021/03/20 03:48:55;;;;;;;32.55;16.13;;;-2.20;99.90;;;;;;4145303;28;20116;-74
2021/03/20 03:51:16;;;;;;;31.40;15.85;;;-2.20;99.90;;;;;;4139608;28;20117;-71
2021/03/20 03:53:24;;;;;;;26.15;14.27;;;-2.30;99.90;;;;;;4143337;28;20080;-74
2021/03/20 03:55:25;;;;;;;40.50;20.92;;;-2.30;99.90;;;;;;4145165;28;20067;-72
2021/03/20 03:58:03;;;;;;;28.92;16.25;;;-2.30;99.90;;;;;;4144599;28;20497;-73
2021/03/20 04:00:14;;;;;;;30.30;15.80;;;-2.30;99.90;;;;;;4145181;28;20058;-72
2021/03/20 04:02:33;;;;;;;28.17;15.90;;;-2.30;99.90;;;;;;4142173;28;20611;-72
2021/03/20 04:04:47;;;;;;;31.52;15.55;;;-2.30;99.90;;;;;;4144962;28;20038;-72
2021/03/20 04:07:06;;;;;;;25.95;14.10;;;-2.30;99.90;;;;;;4145497;28;20215;-72
2021/03/20 04:09:44;;;;;;;28.23;14.68;;;-2.40;99.90;;;;;;4146139;28;20041;-72
2021/03/20 04:12:06;;;;;;;29.27;15.45;;;-2.50;99.90;;;;;;4134697;28;20034;-72
2021/03/20 04:14:27;;;;;;;24.05;13.88;;;-2.50;99.90;;;;;;4139904;28;20049;-72
2021/03/20 04:16:46;;;;;;;23.70;14.43;;;-2.60;99.90;;;;;;4145192;28;20052;-72
2021/03/20 04:19:08;;;;;;;28.50;15.85;;;-2.60;99.90;;;;;;4139211;28;20033;-72
2021/03/20 04:21:32;;;;;;;26.55;15.93;;;-2.60;99.90;;;;;;4143397;28;20057;-73
2021/03/20 04:23:36;;;;;;;29.33;15.90;;;-2.70;99.90;;;;;;4141179;28;20072;-72
2021/03/20 04:25:44;;;;;;;31.25;16.65;;;-2.70;99.90;;;;;;4146098;28;20068;-72
2021/03/20 04:27:51;;;;;;;33.45;16.70;;;-2.60;99.90;;;;;;4140223;28;20040;-72
2021/03/20 04:30:12;;;;;;;38.42;16.83;;;-2.50;99.90;;;;;;4145022;28;20037;-72
2021/03/20 04:32:17;;;;;;;29.33;15.85;;;-2.50;99.90;;;;;;4144394;28;20030;-72
2021/03/20 04:34:32;;;;;;;28.58;15.93;;;-2.50;99.90;;;;;;4146864;28;20038;-73
2021/03/20 04:36:40;;;;;;;30.50;15.77;;;-2.50;99.90;;;;;;4156506;28;20040;-72
2021/03/20 04:38:43;;;;;;;29.30;15.70;;;-2.60;99.90;;;;;;4142260;28;20061;-72
2021/03/20 04:41:02;;;;;;;30.45;16.98;;;-2.60;99.90;;;;;;4145263;28;20037;-72
2021/03/20 04:43:03;;;;;;;31.38;16.75;;;-2.60;99.90;;;;;;4144939;28;20046;-72
2021/03/20 04:45:09;;;;;;;38.22;18.17;;;-2.60;99.90;;;;;;4145362;28;20092;-72
2021/03/20 04:47:16;;;;;;;59.47;19.70;;;-2.60;99.90;;;;;;4142558;28;20041;-72
2021/03/20 04:49:35;;;;;;;34.20;17.45;;;-2.50;99.90;;;;;;4141913;28;20034;-72
2021/03/20 04:51:50;;;;;;;32.60;16.77;;;-2.50;99.90;;;;;;4139680;28;20425;-72
2021/03/20 04:53:53;;;;;;;34.38;17.92;;;-2.50;99.90;;;;;;4145001;28;20050;-73
2021/03/20 04:56:00;;;;;;;37.75;16.90;;;-2.50;99.90;;;;;;4139040;28;20030;-73
2021/03/20 04:58:15;;;;;;;31.65;17.58;;;-2.50;99.90;;;;;;4145142;28;20061;-75
2021/03/20 05:00:34;;;;;;;28.85;17.42;;;-2.60;99.90;;;;;;4142199;28;20034;-72
2021/03/20 05:03:03;;;;;;;27.17;16.13;;;-2.60;99.90;;;;;;4138175;28;20033;-72
2021/03/20 05:05:22;;;;;;;31.00;17.30;;;-2.60;99.90;;;;;;4139331;28;20053;-73
2021/03/20 05:07:23;;;;;;;34.60;18.35;;;-2.60;99.90;;;;;;4143019;28;20039;-73
2021/03/20 05:09:26;;;;;;;37.75;18.48;;;-2.60;99.90;;;;;;4145155;28;20049;-73
2021/03/20 05:11:41;;;;;;;58.90;19.30;;;-2.60;99.90;;;;;;4136801;28;20037;-72
2021/03/20 05:14:05;;;;;;;37.63;18.00;;;-2.50;99.90;;;;;;4140868;28;20026;-72
2021/03/20 05:16:17;;;;;;;30.52;17.60;;;-2.50;99.90;;;;;;4138626;28;20069;-73
2021/03/20 05:18:18;;;;;;;40.45;18.80;;;-2.50;99.90;;;;;;4138458;28;20030;-72
2021/03/20 05:20:18;;;;;;;33.20;17.63;;;-2.40;99.90;;;;;;4144051;28;20041;-73
2021/03/20 05:22:26;;;;;;;39.38;19.52;;;-2.40;99.90;;;;;;4143356;28;20083;-73
2021/03/20 05:24:30;;;;;;;31.42;17.48;;;-2.50;99.90;;;;;;4141881;28;20034;-73
2021/03/20 05:26:32;;;;;;;37.92;18.58;;;-2.50;99.90;;;;;;4140654;28;20092;-73
2021/03/20 05:28:32;;;;;;;39.13;20.05;;;-2.40;99.90;;;;;;4141509;28;20084;-73
2021/03/20 05:30:33;;;;;;;43.42;19.92;;;-2.40;99.90;;;;;;4143441;28;20042;-73
2021/03/20 05:32:35;;;;;;;39.20;20.85;;;-2.30;99.90;;;;;;4141245;28;20109;-73
2021/03/20 05:34:38;;;;;;;38.25;17.75;;;-2.30;99.90;;;;;;4143445;28;20034;-72
2021/03/20 05:36:39;;;;;;;42.22;19.38;;;-2.30;99.90;;;;;;4142739;28;20148;-73
2021/03/20 05:38:40;;;;;;;39.20;19.10;;;-2.30;99.90;;;;;;4141557;28;20046;-72
2021/03/20 05:40:41;;;;;;;37.38;17.60;;;-2.30;99.90;;;;;;4143086;28;20038;-72
2021/03/20 05:43:04;;;;;;;32.90;18.23;;;-2.40;99.90;;;;;;4143167;28;20441;-72
2021/03/20 05:45:35;;;;;;;40.97;19.30;;;-2.40;99.90;;;;;;4144221;28;20038;-72
2021/03/20 05:47:44;;;;;;;40.42;17.73;;;-2.50;99.90;;;;;;4144534;28;20046;-73
2021/03/20 05:50:08;;;;;;;32.15;16.73;;;-2.50;99.90;;;;;;4144472;28;20022;-73
2021/03/20 05:52:20;;;;;;;42.75;19.95;;;-2.50;99.90;;;;;;4144176;28;20501;-73
2021/03/20 05:54:45;;;;;;;34.70;17.13;;;-2.40;99.90;;;;;;4145139;28;20117;-73
2021/03/20 05:56:59;;;;;;;30.60;18.35;;;-2.40;99.90;;;;;;4140692;28;20419;-73
2021/03/20 05:59:20;;;;;;;35.65;17.40;;;-2.50;99.90;;;;;;4141150;28;20037;-72
2021/03/20 06:01:24;;;;;;;38.75;17.88;;;-2.50;99.90;;;;;;4141294;28;20042;-72
2021/03/20 06:03:43;;;;;;;;;;;-2.50;99.90;;;;;;4142907;28;20034;-73
2021/03/20 06:06:13;;;;;;;28.15;15.02;;;-2.40;99.90;;;;;;4152527;28;20435;-73
2021/03/20 06:08:22;;;;;;;34.58;17.73;;;-2.40;99.90;;;;;;4126977;28;20042;-72
2021/03/20 06:10:46;;;;;;;36.58;18.05;;;-2.40;99.90;;;;;;4140918;28;20030;-72
2021/03/20 06:12:55;;;;;;;47.30;20.23;;;-2.30;99.90;;;;;;4140917;28;20125;-72
2021/03/20 06:15:12;;;;;;;44.58;21.88;;;-2.30;99.90;;;;;;4145605;28;20026;-72
2021/03/20 06:17:45;;;;;;;47.97;23.00;;;-2.00;99.90;;;;;;4144926;28;20030;-72
2021/03/20 06:20:02;;;;;;;42.80;21.08;;;-1.80;99.90;;;;;;4136337;28;20125;-72
2021/03/20 06:22:40;;;;;;;32.70;18.60;;;-1.70;99.90;;;;;;4140093;28;20039;-71
2021/03/20 06:25:11;;;;;;;32.40;18.45;;;-1.60;99.90;;;;;;4146296;28;20042;-72
2021/03/20 06:27:16;;;;;;;30.50;17.05;;;-1.70;99.90;;;;;;4162083;28;20428;-72
2021/03/20 06:29:21;;;;;;;31.35;18.27;;;-1.70;99.90;;;;;;4147517;28;20108;-72
2021/03/20 06:31:50;;;;;;;32.70;19.23;;;-1.70;99.90;;;;;;4141873;28;20037;-72
2021/03/20 06:33:55;;;;;;;32.58;17.80;;;-1.60;99.90;;;;;;4141949;28;20030;-71
2021/03/20 06:36:01;;;;;;;32.35;18.55;;;-1.60;99.90;;;;;;4142097;28;20470;-72
2021/03/20 06:38:04;;;;;;;34.00;18.80;;;-1.60;99.90;;;;;;4142246;28;20405;-72
2021/03/20 06:40:18;;;;;;;29.20;18.77;;;-1.50;99.90;;;;;;4143374;28;20038;-72
2021/03/20 06:42:30;;;;;;;32.00;20.17;;;-1.40;99.90;;;;;;4146718;28;20385;-71
2021/03/20 06:44:42;;;;;;;32.33;20.45;;;-1.40;99.90;;;;;;4139199;28;20026;-71
2021/03/20 06:46:43;;;;;;;39.42;21.67;;;-1.30;99.90;;;;;;4145330;28;20029;-72
2021/03/20 06:48:45;;;;;;;39.75;23.60;;;-1.20;99.90;;;;;;4142224;28;20038;-71
2021/03/20 06:50:49;;;;;;;43.85;23.42;;;-1.10;99.90;;;;;;4144536;28;20037;-71
2021/03/20 06:52:52;;;;;;;40.05;22.08;;;-1.00;99.90;;;;;;4143108;28;20038;-73
2021/03/20 06:54:59;;;;;;;41.75;22.85;;;-0.90;99.90;;;;;;4140596;28;20096;-72
2021/03/20 06:57:00;;;;;;;43.70;24.35;;;-0.80;99.90;;;;;;4144939;28;20042;-72
2021/03/20 06:59:00;;;;;;;44.00;22.13;;;-0.70;99.90;;;;;;4142365;28;20062;-72
2021/03/20 07:01:27;;;;;;;41.85;23.75;;;-0.60;99.90;;;;;;4144841;28;20056;-74
2021/03/20 07:03:49;;;;;;;44.53;24.30;;;-0.50;99.90;;;;;;4135683;28;20436;-72
2021/03/20 07:05:58;;;;;;;44.03;23.17;;;-0.40;99.90;;;;;;4139778;28;20038;-72
2021/03/20 07:08:25;;;;;;;39.78;23.60;;;-0.40;99.90;;;;;;4144587;28;20088;-72
2021/03/20 07:10:36;;;;;;;37.97;22.20;;;-0.30;99.90;;;;;;4158357;28;20045;-73
2021/03/20 07:13:08;;;;;;;37.45;23.05;;;-0.20;99.90;;;;;;4158107;28;20033;-72
2021/03/20 07:15:19;;;;;;;36.88;20.65;;;-0.10;99.90;;;;;;4141973;28;20099;-72
2021/03/20 07:17:23;;;;;;;33.63;22.33;;;0.00;99.90;;;;;;4141740;28;20030;-72
2021/03/20 07:19:25;;;;;;;39.22;21.38;;;0.10;99.90;;;;;;4138776;28;20457;-70
2021/03/20 07:21:39;;;;;;;32.30;20.95;;;0.20;99.90;;;;;;4140329;28;20481;-73
2021/03/20 07:23:39;;;;;;;28.98;20.77;;;0.30;99.90;;;;;;4141644;28;20053;-71
2021/03/20 07:25:51;;;;;;;31.83;20.63;;;0.40;99.90;;;;;;4144536;28;20048;-73
2021/03/20 07:28:03;;;;;;;32.20;20.45;;;0.50;99.90;;;;;;4145409;28;20038;-73
2021/03/20 07:30:28;;;;;;;31.75;20.45;;;0.60;99.90;;;;;;4143223;28;20036;-73
2021/03/20 07:32:28;;;;;;;30.92;20.48;;;0.90;99.90;;;;;;4143271;28;20033;-73
2021/03/20 07:34:32;;;;;;;35.40;20.55;;;0.80;99.90;;;;;;4140339;28;20799;-71
2021/03/20 07:36:37;;;;;;;29.55;20.23;;;0.90;99.90;;;;;;4143623;28;20076;-72
2021/03/20 07:38:38;;;;;;;31.48;20.15;;;1.00;99.90;;;;;;4146058;28;20048;-71
2021/03/20 07:40:38;;;;;;;35.92;20.92;;;1.20;99.90;;;;;;4139855;28;20054;-72
2021/03/20 07:42:41;;;;;;;32.63;22.98;;;1.40;99.90;;;;;;4142505;28;20072;-73
2021/03/20 07:44:55;;;;;;;31.83;20.70;;;1.60;99.90;;;;;;4139231;28;20030;-73
2021/03/20 07:46:57;;;;;;;30.10;20.67;;;1.50;99.90;;;;;;4140189;28;20037;-73
2021/03/20 07:49:02;;;;;;;26.83;20.10;;;2.30;99.90;;;;;;4142478;28;20030;-73
2021/03/20 07:51:09;;;;;;;30.08;19.88;;;1.80;99.90;;;;;;4144802;28;20513;-74
2021/03/20 07:53:16;;;;;;;28.45;20.38;;;2.10;99.90;;;;;;4143094;28;20385;-73
2021/03/20 07:55:22;;;;;;;33.92;21.70;;;2.80;99.90;;;;;;4135898;28;20097;-73
2021/03/20 07:57:22;;;;;;;28.38;18.92;;;2.80;99.90;;;;;;4143346;28;20041;-73
2021/03/20 07:59:30;;;;;;;25.65;19.50;;;3.10;99.90;;;;;;4143470;28;20370;-73
2021/03/20 08:01:34;;;;;;;23.77;19.40;;;3.30;99.90;;;;;;4141679;28;20054;-73
2021/03/20 08:03:50;;;;;;;22.73;17.40;;;3.50;99.90;;;;;;4139745;28;20037;-73
2021/03/20 08:05:50;;;;;;;21.95;17.48;;;3.60;99.90;;;;;;4142221;28;20483;-73
2021/03/20 08:07:53;;;;;;;20.05;17.60;;;3.60;99.90;;;;;;4145665;28;20049;-73
2021/03/20 08:10:06;;;;;;;21.58;16.17;;;3.60;99.90;;;;;;4137956;28;20119;-74
2021/03/20 08:12:11;;;;;;;22.23;16.03;;;3.80;99.90;;;;;;4151628;28;20100;-73
2021/03/20 08:14:32;;;;;;;22.08;14.60;;;3.90;99.90;;;;;;4137211;28;20352;-73
2021/03/20 08:16:33;;;;;;;19.67;14.90;;;4.20;99.90;;;;;;4141587;28;20039;-73
2021/03/20 08:18:39;;;;;;;17.90;13.07;;;4.50;99.90;;;;;;4141110;28;20058;-73
2021/03/20 08:20:40;;;;;;;19.88;13.55;;;4.90;99.90;;;;;;4145913;28;20034;-73
2021/03/20 08:22:47;;;;;;;16.50;11.63;;;5.10;99.90;;;;;;4143592;28;20029;-73
2021/03/20 08:25:26;;;;;;;13.75;10.32;;;5.30;99.90;;;;;;4144507;28;20092;-72
2021/03/20 08:27:54;;;;;;;14.48;10.32;;;5.30;99.90;;;;;;4142953;28;20037;-73
2021/03/20 08:30:14;;;;;;;13.93;11.15;;;5.40;99.90;;;;;;4145140;28;20413;-73
2021/03/20 08:32:48;;;;;;;15.57;11.32;;;5.50;99.90;;;;;;4144212;28;20117;-73
2021/03/20 08:35:02;;;;;;;15.63;9.90;;;5.70;99.90;;;;;;4139851;28;20824;-73
2021/03/20 08:37:44;;;;;;;13.63;9.88;;;5.90;99.90;;;;;;4141518;28;20622;-73
2021/03/20 08:40:13;;;;;;;10.73;8.60;;;6.10;99.90;;;;;;4121826;28;20121;-73
2021/03/20 08:42:31;;;;;;;13.23;9.32;;;6.30;99.90;;;;;;4134426;28;20049;-73
2021/03/20 08:44:32;;;;;;;10.98;8.88;;;6.30;99.90;;;;;;4142404;28;20042;-73
2021/03/20 08:47:09;;;;;;;12.93;9.38;;;6.20;99.90;;;;;;4146182;28;20398;-73
2021/03/20 08:49:10;;;;;;;11.13;8.38;;;6.30;99.90;;;;;;4138063;28;20038;-73
2021/03/20 08:51:37;;;;;;;11.57;8.98;;;6.50;99.90;;;;;;4143796;28;20041;-73
2021/03/20 08:53:55;;;;;;;11.32;7.95;;;6.60;99.90;;;;;;4144696;28;20040;-74
2021/03/20 08:56:13;;;;;;;8.98;7.85;;;6.60;99.90;;;;;;4143860;28;20029;-74
2021/03/20 08:58:31;;;;;;;8.88;7.90;;;6.30;99.90;;;;;;4144820;28;20030;-73
2021/03/20 09:00:35;;;;;;;7.93;6.35;;;6.20;99.90;;;;;;4144200;28;20148;-73
2021/03/20 09:02:39;;;;;;;7.72;6.90;;;6.00;99.90;;;;;;4145964;28;20030;-73
2021/03/20 09:04:40;;;;;;;8.82;7.32;;;5.70;99.90;;;;;;4145174;28;20061;-74
2021/03/20 09:06:50;;;;;;;10.02;7.30;;;5.40;99.90;;;;;;4139600;28;20141;-74
2021/03/20 09:08:56;;;;;;;9.07;7.78;;;5.20;99.90;;;;;;4138793;28;20031;-72
2021/03/20 09:11:00;;;;;;;9.60;7.03;;;5.10;99.90;;;;;;4132094;28;20038;-72
2021/03/20 09:13:27;;;;;;;10.73;6.82;;;5.00;99.90;;;;;;4139823;28;20720;-73
2021/03/20 09:15:32;;;;;;;9.82;6.82;;;5.10;99.90;;;;;;4135546;28;20109;-72
2021/03/20 09:17:38;;;;;;;9.13;7.85;;;5.20;99.90;;;;;;4143602;28;20031;-72
2021/03/20 09:19:46;;;;;;;9.45;7.70;;;5.30;99.90;;;;;;4143453;28;20037;-72
2021/03/20 09:21:52;;;;;;;8.70;7.15;;;5.30;99.90;;;;;;4138473;28;20401;-74
2021/03/20 09:23:54;;;;;;;8.90;6.15;;;5.30;99.90;;;;;;4139739;28;20038;-73
2021/03/20 09:25:58;;;;;;;11.93;8.32;;;5.30;99.90;;;;;;4139645;28;20109;-73
2021/03/20 09:28:08;;;;;;;;;;;5.40;99.90;;;;;;4138771;28;20042;-72
2021/03/20 09:30:27;;;;;;;7.72;6.13;;;5.50;99.90;;;;;;4142466;28;19945;-73
2021/03/20 09:32:27;;;;;;;8.30;6.50;;;5.70;99.90;;;;;;4138227;28;20029;-73
2021/03/20 09:34:32;;;;;;;7.07;5.90;;;5.90;99.90;;;;;;4143073;28;20050;-73
2021/03/20 09:36:33;;;;;;;7.28;5.78;;;6.20;99.90;;;;;;4139252;28;20053;-73
2021/03/20 09:38:34;;;;;;;5.70;5.10;;;6.50;99.90;;;;;;4139260;28;20041;-73
2021/03/20 09:40:52;;;;;;;7.25;5.20;;;6.70;99.90;;;;;;4137772;28;20034;-73
2021/03/20 09:42:53;;;;;;;6.28;5.18;;;7.00;99.90;;;;;;4144762;28;20681;-73
2021/03/20 09:45:28;;;;;;;5.35;4.85;;;7.20;99.90;;;;;;4142714;28;20046;-74
2021/03/20 09:47:32;;;;;;;5.80;4.40;;;7.40;99.90;;;;;;4134901;28;20037;-74
2021/03/20 09:49:37;;;;;;;4.90;4.40;;;7.60;99.90;;;;;;4144890;28;20034;-73
2021/03/20 09:51:49;;;;;;;6.38;5.13;;;7.70;99.90;;;;;;4144383;28;20061;-73
2021/03/20 09:53:50;;;;;;;6.07;4.40;;;8.00;99.90;;;;;;4140334;28;20079;-72
2021/03/20 09:55:51;;;;;;;6.57;5.00;;;8.00;99.90;;;;;;4143879;28;20034;-73
2021/03/20 09:57:53;;;;;;;6.28;5.53;;;8.20;99.90;;;;;;4148169;28;20717;-72
2021/03/20 09:59:54;;;;;;;8.13;6.10;;;8.40;99.90;;;;;;4146760;28;20034;-72
2021/03/20 10:02:30;;;;;;;5.30;4.80;;;8.50;99.90;;;;;;4145008;28;20045;-72
2021/03/20 10:04:51;;;;;;;4.85;4.25;;;9.00;99.90;;;;;;4143281;28;20068;-72
2021/03/20 10:07:15;;;;;;;5.40;4.90;;;9.40;99.90;;;;;;4143300;28;20033;-72
2021/03/20 10:09:16;;;;;;;7.18;4.93;;;9.50;99.90;;;;;;4145722;28;20038;-73
2021/03/20 10:11:55;;;;;;;5.78;5.18;;;9.60;99.90;;;;;;4146051;28;20119;-73
2021/03/20 10:13:56;;;;;;;4.95;4.45;;;9.80;99.90;;;;;;4144393;28;20046;-73
2021/03/20 10:16:01;;;;;;;7.07;4.97;;;10.20;99.90;;;;;;4145586;28;20026;-73
2021/03/20 10:18:04;;;;;;;5.47;4.97;;;10.20;99.90;;;;;;4146059;28;20057;-73
2021/03/20 10:20:14;;;;;;;;;;;10.30;99.90;;;;;;4147755;28;20159;-73
2021/03/20 10:22:30;;;;;;;6.15;4.78;;;10.50;99.90;;;;;;4154555;28;20285;-74
2021/03/20 10:24:31;;;;;;;5.40;4.47;;;10.90;99.90;;;;;;4139671;28;20057;-73
2021/03/20 10:26:49;;;;;;;6.22;4.18;;;10.80;99.90;;;;;;4139246;28;20030;-73
2021/03/20 10:29:06;;;;;;;3.50;3.20;;;10.90;99.90;;;;;;4142115;28;20095;-73
2021/03/20 10:31:10;;;;;;;4.25;3.55;;;11.10;98.20;;;;;;4138595;28;20033;-73
2021/03/20 10:33:13;;;;;;;4.30;3.90;;;11.30;93.90;;;;;;4160344;28;20032;-74
2021/03/20 10:35:14;;;;;;;4.45;3.70;;;11.30;90.90;;;;;;4140540;28;20061;-73
2021/03/20 10:37:16;;;;;;;3.75;3.33;;;11.40;99.20;;;;;;4144749;28;20424;-74
2021/03/20 10:39:31;;;;;;;5.18;3.67;;;11.70;89.10;;;;;;4137730;28;20417;-73
2021/03/20 10:41:36;;;;;;;3.85;3.55;;;11.80;80.70;;;;;;4138416;28;20038;-73
2021/03/20 10:44:15;;;;;;;4.07;3.35;;;12.00;79.70;;;;;;4143693;28;20042;-74
2021/03/20 10:46:30;;;;;;;3.50;3.20;;;11.80;83.30;;;;;;4146348;28;20502;-73
2021/03/20 10:48:32;;;;;;;3.47;3.08;;;12.00;79.70;;;;;;4147490;28;20584;-73
2021/03/20 10:50:42;;;;;;;4.15;3.53;;;12.10;81.70;;;;;;4147423;28;20030;-73
2021/03/20 10:52:43;;;;;;;4.15;3.63;;;12.40;80.80;;;;;;4146317;28;20401;-73
2021/03/20 10:54:49;;;;;;;5.40;4.38;;;12.60;77.10;;;;;;4139271;28;20045;-73
2021/03/20 10:56:53;;;;;;;6.25;4.88;;;12.60;76.90;;;;;;4143281;28;20034;-73
2021/03/20 10:58:54;;;;;;;5.32;3.70;;;12.80;75.10;;;;;;4139418;28;20034;-73
2021/03/20 11:00:55;;;;;;;5.63;3.88;;;13.20;75.90;;;;;;4145967;28;20042;-73
2021/03/20 11:03:32;;;;;;;4.53;3.60;;;13.60;73.50;;;;;;4145582;28;20551;-72
2021/03/20 11:05:33;;;;;;;3.90;3.45;;;13.50;71.90;;;;;;4123647;28;20514;-72
2021/03/20 11:07:43;;;;;;;5.15;4.20;;;13.60;71.30;;;;;;4144679;28;20042;-72